| Date | Time | Temp. (oF) | Dew Point (oF) | Rel. Hum. (%) | Press. (in.) | Wind Dir. | Wind Speed (mph) | Hourly Rainfall (in.) |
|
|---|---|---|---|---|---|---|---|---|---|
| 1 | 02/08 | 00:00 | 28 | 27 | 100 | 30.26 | N | 0 | 0.00 |
| 2 | 02/07 | 23:00 | 30 | 27 | 90 | 30.25 | W | 0 | 0.00 |
| 3 | 02/07 | 22:00 | 32 | 28 | 86 | 30.25 | WSW | 1 | 0.00 |
| 4 | 02/07 | 21:00 | 37 | 28 | 72 | 30.23 | NNE | 1 | 0.00 |
| 5 | 02/07 | 20:00 | 39 | 28 | 66 | 30.22 | NE | 4 | 0.00 |
| 6 | 02/07 | 19:00 | 41 | 29 | 64 | 30.21 | NNE | 6 | 0.00 |
| 7 | 02/07 | 18:00 | 43 | 30 | 61 | 30.17 | NNE | 8 | 0.00 |
| 8 | 02/07 | 17:00 | 46 | 29 | 52 | 30.13 | WNW | 6 | 0.00 |
| 9 | 02/07 | 16:00 | 48 | 29 | 49 | 30.11 | N | 9 | 0.00 |
| 10 | 02/07 | 15:00 | 48 | 31 | 52 | 30.10 | NW | 6 | 0.00 |
| 11 | 02/07 | 14:00 | 47 | 31 | 54 | 30.11 | N | 12 | 0.00 |
| 12 | 02/07 | 13:00 | 46 | 30 | 55 | 30.12 | N | 13 | 0.00 |
| 13 | 02/07 | 12:00 | 44 | 29 | 57 | 30.15 | N | 12 | 0.00 |
| 14 | 02/07 | 11:00 | 43 | 30 | 61 | 30.17 | N | 11 | 0.00 |
| 15 | 02/07 | 10:00 | 41 | 30 | 67 | 30.17 | NNE | 7 | 0.00 |
| 16 | 02/07 | 09:00 | 38 | 30 | 75 | 30.15 | N | 5 | 0.00 |
| 17 | 02/07 | 08:00 | 33 | 28 | 84 | 30.13 | WNW | 7 | 0.00 |
| 18 | 02/07 | 07:00 | 26 | 26 | 100 | 30.11 | SSW | 0 | 0.00 |
| 19 | 02/07 | 06:00 | 27 | 27 | 100 | 30.08 | NE | 0 | 0.00 |
| 20 | 02/07 | 05:00 | 26 | 26 | 100 | 30.08 | N | 0 | 0.00 |
| 21 | 02/07 | 04:00 | 27 | 26 | 97 | 30.07 | W | 1 | 0.00 |
| 22 | 02/07 | 03:00 | 29 | 26 | 89 | 30.06 | SSW | 1 | 0.00 |
| 23 | 02/07 | 02:00 | 31 | 28 | 89 | 30.07 | W | 3 | 0.00 |
| 24 | 02/07 | 01:00 | 29 | 26 | 90 | 30.05 | WSW | 0 | 0.00 |